createdAt,value
2023-03-27T00:01:16.065Z,3.08
2023-03-27T00:03:17.839Z,3.12
2023-03-27T00:05:20.570Z,3.09
2023-03-27T00:07:22.702Z,3.14
2023-03-27T00:09:25.706Z,3.10
2023-03-27T00:11:28.518Z,3.02
2023-03-27T00:13:30.566Z,2.84
2023-03-27T00:15:33.926Z,2.89
2023-03-27T00:17:35.487Z,2.94
2023-03-27T00:19:37.199Z,2.84
2023-03-27T00:21:39.168Z,2.92
2023-03-27T00:23:42.258Z,2.97
2023-03-27T00:25:43.950Z,2.99
2023-03-27T00:27:45.485Z,2.96
2023-03-27T00:29:47.099Z,3.00
2023-03-27T00:31:48.632Z,3.05
2023-03-27T00:33:51.180Z,3.00
2023-03-27T00:35:53.496Z,3.00
2023-03-27T00:37:55.923Z,3.08
2023-03-27T00:39:57.456Z,2.96
2023-03-27T00:41:58.994Z,3.00
2023-03-27T00:44:00.548Z,2.95
2023-03-27T00:46:07.980Z,2.88
2023-03-27T00:48:09.988Z,2.82
2023-03-27T00:50:18.852Z,2.86
2023-03-27T00:52:21.322Z,2.92
2023-03-27T00:54:27.139Z,2.85
2023-03-27T00:56:28.835Z,2.90
2023-03-27T00:58:36.515Z,2.89
2023-03-27T01:00:39.238Z,2.75
2023-03-27T01:02:42.698Z,2.72
2023-03-27T01:04:45.992Z,2.57
2023-03-27T01:06:51.500Z,2.39
2023-03-27T01:08:54.403Z,2.42
2023-03-27T01:11:14.882Z,2.40
2023-03-27T01:13:44.380Z,2.39
2023-03-27T01:15:51.478Z,2.34
2023-03-27T01:18:07.196Z,2.30
2023-03-27T01:20:32.359Z,2.20
2023-03-27T01:23:06.215Z,2.11
2023-03-27T01:25:42.268Z,2.20
2023-03-27T01:28:04.521Z,2.18
2023-03-27T01:30:18.685Z,2.14
2023-03-27T01:33:01.406Z,1.99
2023-03-27T01:35:24.929Z,1.87
2023-03-27T01:38:03.791Z,1.62
2023-03-27T01:40:46.709Z,1.54
2023-03-27T01:42:54.009Z,1.50
2023-03-27T01:45:06.757Z,1.53
2023-03-27T01:47:16.531Z,1.55
2023-03-27T01:49:34.012Z,1.64
2023-03-27T01:51:39.463Z,1.64
2023-03-27T01:53:52.168Z,1.54
2023-03-27T01:56:00.415Z,1.70
2023-03-27T01:58:14.396Z,1.61
2023-03-27T02:00:22.400Z,1.59
2023-03-27T02:02:30.935Z,1.66
2023-03-27T02:04:48.793Z,1.73
2023-03-27T02:06:57.095Z,1.70
2023-03-27T02:09:04.896Z,1.56
2023-03-27T02:11:07.670Z,1.60
2023-03-27T02:13:34.955Z,1.48
2023-03-27T02:15:41.199Z,1.43
2023-03-27T02:18:04.577Z,1.42
2023-03-27T02:20:14.742Z,1.35
2023-03-27T02:22:16.966Z,1.40
2023-03-27T02:24:24.323Z,1.40
2023-03-27T02:26:25.890Z,1.40
2023-03-27T02:28:48.660Z,1.33
2023-03-27T02:31:32.660Z,1.34
2023-03-27T02:33:34.232Z,1.24
2023-03-27T02:35:55.524Z,1.21
2023-03-27T02:38:23.397Z,1.16
2023-03-27T02:40:39.873Z,1.19
2023-03-27T02:43:23.241Z,1.26
2023-03-27T02:45:37.184Z,1.28
2023-03-27T02:47:52.596Z,1.16
2023-03-27T02:50:01.752Z,1.11
2023-03-27T02:52:07.376Z,1.18
2023-03-27T02:54:17.030Z,1.12
2023-03-27T02:56:22.104Z,0.95
2023-03-27T02:58:39.757Z,1.00
2023-03-27T03:00:50.505Z,0.92
2023-03-27T03:03:36.187Z,1.02
2023-03-27T03:05:45.614Z,1.02
2023-03-27T03:07:48.555Z,0.94
2023-03-27T03:09:50.264Z,1.05
2023-03-27T03:11:53.384Z,1.07
2023-03-27T03:13:56.592Z,0.96
2023-03-27T03:15:58.886Z,0.89
2023-03-27T03:18:00.539Z,1.01
2023-03-27T03:20:02.078Z,0.99
2023-03-27T03:22:04.666Z,0.93
2023-03-27T03:24:07.659Z,1.06
2023-03-27T03:26:09.162Z,0.93
2023-03-27T03:28:26.112Z,0.82
2023-03-27T03:30:30.183Z,0.83
2023-03-27T03:32:39.534Z,0.96
2023-03-27T03:34:46.468Z,0.88
2023-03-27T03:36:50.231Z,0.89
2023-03-27T03:38:56.917Z,0.79
2023-03-27T03:40:59.551Z,0.81
2023-03-27T03:43:01.469Z,0.87
2023-03-27T03:45:05.154Z,0.84
2023-03-27T03:47:07.208Z,1.22
2023-03-27T03:49:09.145Z,1.35
2023-03-27T03:51:11.035Z,1.56
2023-03-27T03:53:14.094Z,1.68
2023-03-27T03:55:16.100Z,1.74
2023-03-27T03:57:18.367Z,1.80
2023-03-27T03:59:33.542Z,2.02
2023-03-27T04:02:01.467Z,2.16
2023-03-27T04:04:05.699Z,2.45
2023-03-27T04:06:27.418Z,2.44
2023-03-27T04:08:36.017Z,2.59
2023-03-27T04:10:39.502Z,2.56
2023-03-27T04:12:49.872Z,2.76
2023-03-27T04:15:13.455Z,2.40
2023-03-27T04:17:33.268Z,2.00
2023-03-27T04:19:36.623Z,1.64
2023-03-27T04:21:42.203Z,1.57
2023-03-27T04:23:45.537Z,1.21
2023-03-27T04:25:49.693Z,1.18
2023-03-27T04:27:58.714Z,1.05
2023-03-27T04:30:15.768Z,0.96
2023-03-27T04:32:59.957Z,0.72
2023-03-27T04:35:25.650Z,0.59
2023-03-27T04:37:48.559Z,0.51
2023-03-27T04:40:20.653Z,0.66
2023-03-27T04:42:23.445Z,0.48
2023-03-27T04:44:26.088Z,0.40
2023-03-27T04:46:27.969Z,0.39
2023-03-27T04:48:38.319Z,0.56
2023-03-27T04:50:52.086Z,0.44
2023-03-27T04:53:08.667Z,0.57
2023-03-27T04:55:14.825Z,0.36
2023-03-27T04:57:22.540Z,0.13
2023-03-27T04:59:24.553Z,0.38
2023-03-27T05:01:44.649Z,0.46
2023-03-27T05:04:05.319Z,0.28
2023-03-27T05:06:21.225Z,0.15
2023-03-27T05:08:23.825Z,-0.01
2023-03-27T05:10:25.569Z,0.10
2023-03-27T05:12:27.903Z,0.14
2023-03-27T05:14:34.564Z,0.11
2023-03-27T05:16:37.057Z,0.20
2023-03-27T05:18:42.101Z,-0.02
2023-03-27T05:20:48.691Z,1.06
2023-03-27T05:22:54.977Z,0.51
2023-03-27T05:25:06.466Z,0.66
2023-03-27T05:27:08.378Z,0.35
2023-03-27T05:29:11.377Z,0.13
2023-03-27T05:31:19.241Z,-0.01
2023-03-27T05:33:39.898Z,-0.01
2023-03-27T05:35:46.666Z,0.10
2023-03-27T05:37:50.044Z,0.14
2023-03-27T05:40:00.261Z,0.37
2023-03-27T05:42:01.937Z,0.40
2023-03-27T05:44:03.913Z,0.25
2023-03-27T05:46:10.188Z,0.24
2023-03-27T05:48:12.753Z,0.20
2023-03-27T05:50:17.935Z,0.17
2023-03-27T05:52:19.846Z,0.28
2023-03-27T05:54:21.560Z,0.18
2023-03-27T05:56:49.440Z,0.45
2023-03-27T05:58:51.309Z,0.55
2023-03-27T06:00:54.157Z,0.64
2023-03-27T06:02:59.605Z,0.71
2023-03-27T06:05:16.929Z,0.65
2023-03-27T06:07:23.100Z,0.63
2023-03-27T06:09:25.278Z,0.63
2023-03-27T06:11:47.507Z,0.62
2023-03-27T06:13:49.373Z,0.54
2023-03-27T06:15:55.100Z,0.51
2023-03-27T06:18:12.538Z,0.57
2023-03-27T06:20:15.318Z,0.68
2023-03-27T06:22:24.233Z,0.60
2023-03-27T06:24:26.397Z,0.69
2023-03-27T06:26:28.192Z,0.72
2023-03-27T06:28:34.112Z,0.69
2023-03-27T06:30:39.470Z,0.75
2023-03-27T06:33:00.554Z,0.91
2023-03-27T06:35:02.929Z,0.86
2023-03-27T06:37:18.250Z,0.93
2023-03-27T06:39:20.444Z,0.92
2023-03-27T06:41:27.543Z,1.00
2023-03-27T06:43:52.640Z,1.05
2023-03-27T06:46:06.708Z,1.14
2023-03-27T06:48:26.507Z,1.23
2023-03-27T06:50:32.922Z,1.30
2023-03-27T06:52:35.031Z,1.13
2023-03-27T06:54:51.994Z,1.32
2023-03-27T06:56:53.614Z,1.24
2023-03-27T06:58:56.732Z,1.37
2023-03-27T07:01:01.745Z,1.42
2023-03-27T07:03:11.734Z,1.40
2023-03-27T07:05:24.506Z,1.35
2023-03-27T07:07:28.110Z,1.59
2023-03-27T07:09:29.711Z,1.61
2023-03-27T07:11:37.062Z,1.78
2023-03-27T07:13:43.472Z,1.97
2023-03-27T07:15:55.110Z,2.17
2023-03-27T07:18:03.158Z,2.31
2023-03-27T07:20:06.420Z,2.45
2023-03-27T07:22:08.953Z,6.77
2023-03-27T07:24:11.775Z,9.54
2023-03-27T07:26:13.493Z,7.48
2023-03-27T07:28:38.586Z,5.31
2023-03-27T07:30:44.516Z,4.11
2023-03-27T07:32:46.924Z,3.84
2023-03-27T07:34:48.793Z,3.67
2023-03-27T07:37:25.752Z,2.90
2023-03-27T07:39:46.199Z,2.94
2023-03-27T07:41:49.270Z,2.82
2023-03-27T07:43:57.277Z,2.57
2023-03-27T07:46:00.122Z,2.63
2023-03-27T07:48:08.635Z,3.74
2023-03-27T07:50:11.775Z,4.07
2023-03-27T07:52:16.480Z,3.63
2023-03-27T07:54:31.514Z,3.33
2023-03-27T07:56:33.964Z,3.24
2023-03-27T07:58:55.139Z,2.87
2023-03-27T08:01:02.310Z,3.02
2023-03-27T08:03:08.367Z,2.96
2023-03-27T08:05:11.456Z,2.86
2023-03-27T08:07:13.491Z,2.88
2023-03-27T08:09:17.544Z,2.91
2023-03-27T08:11:30.366Z,2.95
2023-03-27T08:13:33.129Z,3.21
2023-03-27T08:15:39.202Z,3.36
2023-03-27T08:17:54.585Z,3.64
2023-03-27T08:20:03.890Z,3.60
2023-03-27T08:22:07.045Z,3.62
2023-03-27T08:24:22.029Z,3.80
2023-03-27T08:26:46.553Z,4.05
2023-03-27T08:28:48.439Z,4.20
2023-03-27T08:30:51.039Z,4.37
2023-03-27T08:32:53.849Z,4.33
2023-03-27T08:34:55.737Z,4.54
2023-03-27T08:36:58.576Z,4.67
2023-03-27T08:39:09.827Z,4.85
2023-03-27T08:41:55.169Z,4.70
2023-03-27T08:44:03.894Z,4.89
2023-03-27T08:46:07.744Z,4.79
2023-03-27T08:48:22.108Z,5.07
2023-03-27T08:50:32.661Z,5.17
2023-03-27T08:52:50.056Z,5.22
2023-03-27T08:55:18.487Z,5.25
2023-03-27T08:57:35.571Z,4.97
2023-03-27T08:59:43.668Z,4.79
2023-03-27T09:01:55.720Z,4.57
2023-03-27T09:04:21.803Z,3.91
2023-03-27T09:06:27.801Z,3.72
2023-03-27T09:08:54.221Z,3.87
2023-03-27T09:11:21.221Z,4.05
2023-03-27T09:13:46.981Z,3.84
2023-03-27T09:16:02.238Z,3.76
2023-03-27T09:18:11.537Z,4.34
2023-03-27T09:20:21.783Z,4.62
2023-03-27T09:22:34.203Z,5.31
2023-03-27T09:24:50.783Z,5.57
2023-03-27T09:27:07.492Z,5.19
2023-03-27T09:29:25.605Z,4.80
2023-03-27T09:31:46.856Z,4.30
2023-03-27T09:33:48.710Z,4.74
2023-03-27T09:35:50.514Z,5.44
2023-03-27T09:37:58.639Z,5.27
2023-03-27T09:40:01.326Z,5.17
2023-03-27T09:42:17.119Z,4.66
2023-03-27T09:44:28.621Z,5.15
2023-03-27T09:46:37.950Z,4.92
2023-03-27T09:48:50.312Z,4.88
2023-03-27T09:50:52.186Z,5.04
2023-03-27T09:53:21.551Z,5.31
2023-03-27T09:55:52.645Z,5.33
2023-03-27T09:58:23.091Z,5.37
2023-03-27T10:00:30.749Z,5.59
2023-03-27T10:02:32.891Z,5.51
2023-03-27T10:04:36.685Z,6.00
2023-03-27T10:06:48.104Z,5.60
2023-03-27T10:09:01.597Z,5.70
2023-03-27T10:11:21.863Z,5.79
2023-03-27T10:13:29.859Z,5.90
2023-03-27T10:15:35.536Z,6.02
2023-03-27T10:17:39.652Z,6.14
2023-03-27T10:19:46.394Z,6.16
2023-03-27T10:21:47.962Z,6.32
2023-03-27T10:24:04.029Z,6.70
2023-03-27T10:26:25.433Z,7.58
2023-03-27T10:28:34.497Z,7.43
2023-03-27T10:31:01.939Z,7.49
2023-03-27T10:33:31.963Z,6.77
2023-03-27T10:36:06.131Z,6.47
2023-03-27T10:38:14.809Z,6.98
2023-03-27T10:40:36.308Z,7.30
2023-03-27T10:42:48.758Z,7.05
2023-03-27T10:44:54.393Z,6.53
2023-03-27T10:47:00.904Z,6.09
2023-03-27T10:49:16.848Z,5.55
2023-03-27T10:51:45.892Z,5.16
2023-03-27T10:53:56.918Z,4.77
2023-03-27T10:56:34.589Z,4.12
2023-03-27T10:58:47.171Z,4.15
2023-03-27T11:00:58.796Z,4.14
2023-03-27T11:03:11.973Z,4.42
2023-03-27T11:05:19.152Z,4.53
2023-03-27T11:07:37.923Z,4.52
2023-03-27T11:09:59.000Z,4.69
2023-03-27T11:12:14.806Z,5.12
2023-03-27T11:15:02.450Z,5.64
2023-03-27T11:17:07.580Z,6.54
2023-03-27T11:19:43.673Z,7.52
2023-03-27T11:22:32.277Z,7.50
2023-03-27T11:24:45.391Z,8.10
2023-03-27T11:27:03.358Z,8.98
2023-03-27T11:29:11.174Z,8.87
2023-03-27T11:31:38.572Z,7.05
2023-03-27T11:33:49.882Z,6.24
2023-03-27T11:36:01.464Z,5.56
2023-03-27T11:38:28.719Z,6.39
2023-03-27T11:40:40.087Z,7.43
2023-03-27T11:42:44.569Z,7.71
2023-03-27T11:44:48.123Z,10.07
2023-03-27T11:47:37.175Z,9.57
2023-03-27T11:50:06.444Z,9.93
2023-03-27T11:52:24.654Z,9.63
2023-03-27T11:55:11.079Z,9.38
2023-03-27T11:57:25.732Z,9.89
2023-03-27T11:59:53.596Z,9.79
2023-03-27T12:02:08.561Z,9.67
2023-03-27T12:04:32.848Z,9.51
2023-03-27T12:07:13.311Z,8.82
2023-03-27T12:09:43.541Z,9.07
2023-03-27T12:12:32.828Z,10.33
2023-03-27T12:14:57.942Z,10.02
2023-03-27T12:17:26.005Z,10.54
2023-03-27T12:20:01.944Z,11.58
2023-03-27T12:22:33.531Z,12.12
2023-03-27T12:24:57.107Z,11.74
2023-03-27T12:28:01.386Z,11.27
2023-03-27T12:30:18.737Z,10.61
2023-03-27T12:32:44.774Z,9.92
2023-03-27T12:34:56.668Z,11.23
2023-03-27T12:37:04.348Z,12.28
2023-03-27T12:39:24.346Z,12.34
2023-03-27T12:41:31.822Z,12.50
2023-03-27T12:43:45.325Z,12.90
2023-03-27T12:46:16.294Z,11.50
2023-03-27T12:48:19.515Z,10.54
2023-03-27T12:50:29.727Z,9.99
2023-03-27T12:52:31.470Z,10.04
2023-03-27T12:54:35.507Z,10.33
2023-03-27T12:57:20.565Z,11.25
2023-03-27T12:59:27.605Z,10.79
2023-03-27T13:01:51.638Z,10.86
2023-03-27T13:04:02.314Z,11.33
2023-03-27T13:06:35.488Z,12.45
2023-03-27T13:08:57.635Z,10.75
2023-03-27T13:11:29.119Z,10.27
2023-03-27T13:14:08.380Z,9.30
2023-03-27T13:16:22.622Z,9.26
2023-03-27T13:18:45.318Z,8.92
2023-03-27T13:21:18.809Z,9.92
2023-03-27T13:23:47.971Z,9.75
2023-03-27T13:26:17.783Z,9.40
2023-03-27T13:28:38.980Z,9.45
2023-03-27T13:30:57.303Z,10.18
2023-03-27T13:33:38.692Z,10.72
2023-03-27T13:35:53.442Z,10.10
2023-03-27T13:37:58.346Z,9.52
2023-03-27T13:40:38.679Z,8.44
2023-03-27T13:42:52.403Z,8.23
2023-03-27T13:45:01.061Z,7.69
2023-03-27T13:47:31.351Z,7.36
2023-03-27T13:49:35.671Z,8.78
2023-03-27T13:52:01.870Z,8.56
2023-03-27T13:54:34.435Z,9.48
2023-03-27T13:56:52.977Z,10.21
2023-03-27T13:59:29.793Z,10.94
2023-03-27T14:01:38.255Z,10.08
2023-03-27T14:04:06.404Z,9.23
2023-03-27T14:06:46.299Z,8.87
2023-03-27T14:09:01.954Z,8.78
2023-03-27T14:11:35.600Z,8.07
2023-03-27T14:14:09.023Z,7.66
2023-03-27T14:16:32.334Z,7.36
2023-03-27T14:18:45.247Z,8.08
2023-03-27T14:20:50.074Z,8.17
2023-03-27T14:23:03.525Z,9.36
2023-03-27T14:25:20.318Z,10.43
2023-03-27T14:27:32.497Z,10.57
2023-03-27T14:29:35.050Z,11.38
2023-03-27T14:31:38.535Z,12.44
2023-03-27T14:34:04.193Z,12.64
2023-03-27T14:36:16.459Z,11.84
2023-03-27T14:38:24.763Z,10.66
2023-03-27T14:40:33.179Z,10.23
2023-03-27T14:42:38.696Z,9.22
2023-03-27T14:44:40.415Z,8.34
2023-03-27T14:46:48.847Z,8.42
2023-03-27T14:48:54.564Z,9.09
2023-03-27T14:51:01.825Z,9.27
2023-03-27T14:53:09.571Z,8.38
2023-03-27T14:55:40.091Z,8.36
2023-03-27T14:58:11.208Z,8.44
2023-03-27T15:00:19.997Z,8.29
2023-03-27T15:02:23.021Z,8.27
2023-03-27T15:04:31.521Z,7.94
2023-03-27T15:06:37.755Z,8.22
2023-03-27T15:08:46.563Z,8.13
2023-03-27T15:11:13.957Z,8.39
2023-03-27T15:13:41.020Z,8.81
2023-03-27T15:15:50.458Z,9.57
2023-03-27T15:17:55.226Z,10.46
2023-03-27T15:20:14.281Z,11.18
2023-03-27T15:22:32.016Z,11.35
2023-03-27T15:24:56.320Z,11.59
2023-03-27T15:27:00.435Z,11.43
2023-03-27T15:29:27.223Z,11.37
2023-03-27T15:31:30.685Z,11.66
2023-03-27T15:33:53.045Z,12.18
2023-03-27T15:35:56.620Z,10.99
2023-03-27T15:37:59.997Z,11.04
2023-03-27T15:40:13.434Z,11.57
2023-03-27T15:42:15.840Z,11.81
2023-03-27T15:44:21.137Z,11.25
2023-03-27T15:46:26.630Z,11.08
2023-03-27T15:48:35.248Z,11.08
2023-03-27T15:50:37.144Z,10.28
2023-03-27T15:52:47.484Z,10.67
2023-03-27T15:54:54.551Z,10.13
2023-03-27T15:57:09.788Z,10.01
2023-03-27T15:59:14.894Z,9.93
2023-03-27T16:01:25.849Z,9.80
2023-03-27T16:03:32.649Z,9.01
2023-03-27T16:05:42.495Z,8.26
2023-03-27T16:07:47.196Z,7.95
2023-03-27T16:09:56.001Z,7.46
2023-03-27T16:11:58.254Z,7.33
2023-03-27T16:14:00.573Z,6.78
2023-03-27T16:16:28.636Z,6.54
2023-03-27T16:18:36.770Z,6.78
2023-03-27T16:20:40.055Z,6.85
2023-03-27T16:22:41.550Z,6.89
2023-03-27T16:24:43.083Z,7.03
2023-03-27T16:26:44.757Z,7.22
2023-03-27T16:28:46.545Z,7.26
2023-03-27T16:30:48.352Z,6.85
2023-03-27T16:32:50.028Z,6.90
2023-03-27T16:34:51.767Z,6.58
2023-03-27T16:36:53.573Z,6.42
2023-03-27T16:38:55.909Z,6.21
2023-03-27T16:40:57.574Z,6.09
2023-03-27T16:42:59.176Z,6.16
2023-03-27T16:45:01.689Z,6.41
2023-03-27T16:47:03.369Z,6.37
2023-03-27T16:49:04.923Z,6.30
2023-03-27T16:51:06.604Z,6.21
2023-03-27T16:53:08.228Z,5.86
2023-03-27T16:55:11.437Z,5.58
2023-03-27T16:57:13.137Z,5.67
2023-03-27T16:59:16.073Z,5.73
2023-03-27T17:01:17.559Z,5.46
2023-03-27T17:03:19.171Z,5.28
2023-03-27T17:05:21.070Z,5.10
2023-03-27T17:07:27.123Z,5.02
2023-03-27T17:09:28.684Z,4.97
2023-03-27T17:11:30.311Z,4.88
2023-03-27T17:13:32.428Z,4.64
2023-03-27T17:15:38.911Z,4.67
2023-03-27T17:17:40.536Z,4.58
2023-03-27T17:19:44.862Z,4.55
2023-03-27T17:21:46.471Z,4.62
2023-03-27T17:23:48.733Z,4.48
2023-03-27T17:25:50.889Z,4.62
2023-03-27T17:27:52.760Z,4.40
2023-03-27T17:29:57.751Z,4.30
2023-03-27T17:32:00.963Z,3.85
2023-03-27T17:34:02.814Z,3.51
2023-03-27T17:36:12.091Z,3.14
2023-03-27T17:38:13.658Z,3.22
2023-03-27T17:40:15.313Z,3.09
2023-03-27T17:42:20.251Z,3.04
2023-03-27T17:44:21.764Z,3.12
2023-03-27T17:46:23.398Z,3.09
2023-03-27T17:48:25.243Z,3.13
2023-03-27T17:50:26.906Z,2.97
2023-03-27T17:52:31.591Z,3.02
2023-03-27T17:54:33.264Z,2.91
2023-03-27T17:56:34.892Z,2.94
2023-03-27T17:58:37.255Z,2.87
2023-03-27T18:00:41.180Z,2.80
2023-03-27T18:02:43.658Z,2.69
2023-03-27T18:04:51.876Z,2.74
2023-03-27T18:06:53.595Z,2.61
2023-03-27T18:08:55.380Z,2.48
2023-03-27T18:10:56.944Z,2.50
2023-03-27T18:12:58.643Z,2.65
2023-03-27T18:15:00.439Z,2.40
2023-03-27T18:17:02.103Z,2.32
2023-03-27T18:19:03.779Z,2.37
2023-03-27T18:21:06.201Z,2.40
2023-03-27T18:23:07.782Z,2.32
2023-03-27T18:25:09.913Z,2.42
2023-03-27T18:27:11.462Z,2.20
2023-03-27T18:29:13.074Z,2.09
2023-03-27T18:31:15.688Z,2.24
2023-03-27T18:33:17.564Z,2.21
2023-03-27T18:35:20.563Z,2.49
2023-03-27T18:37:22.368Z,2.61
2023-03-27T18:39:23.951Z,2.58
2023-03-27T18:41:25.701Z,2.69
2023-03-27T18:43:27.412Z,2.77
2023-03-27T18:45:29.114Z,2.61
2023-03-27T18:47:30.872Z,2.64
2023-03-27T18:49:32.396Z,2.67
2023-03-27T18:51:34.038Z,2.52
2023-03-27T18:53:35.859Z,2.71
2023-03-27T18:55:38.349Z,2.68
2023-03-27T18:57:40.214Z,2.66
2023-03-27T18:59:41.750Z,2.45
2023-03-27T19:01:43.961Z,2.41
2023-03-27T19:03:45.605Z,2.41
2023-03-27T19:05:47.837Z,2.48
2023-03-27T19:07:49.418Z,2.40
2023-03-27T19:09:50.929Z,2.18
2023-03-27T19:11:55.304Z,2.42
2023-03-27T19:14:23.165Z,2.26
2023-03-27T19:16:44.735Z,2.19
2023-03-27T19:18:55.048Z,2.13
2023-03-27T19:21:15.375Z,1.99
2023-03-27T19:23:36.526Z,1.99
2023-03-27T19:25:41.393Z,2.12
2023-03-27T19:27:43.805Z,1.99
2023-03-27T19:29:45.428Z,2.00
2023-03-27T19:31:47.107Z,2.17
2023-03-27T19:33:48.706Z,2.19
2023-03-27T19:35:52.377Z,2.28
2023-03-27T19:37:54.536Z,2.36
2023-03-27T19:39:58.632Z,2.39
2023-03-27T19:42:01.627Z,2.40
2023-03-27T19:44:04.136Z,2.37
2023-03-27T19:46:15.580Z,2.38
2023-03-27T19:48:18.599Z,2.29
2023-03-27T19:50:20.688Z,2.35
2023-03-27T19:52:49.363Z,2.52
2023-03-27T19:54:56.145Z,2.42
2023-03-27T19:56:58.736Z,2.43
2023-03-27T19:59:00.501Z,2.38
2023-03-27T20:01:02.032Z,2.40
2023-03-27T20:03:04.798Z,2.42
2023-03-27T20:05:09.552Z,2.50
2023-03-27T20:07:11.290Z,2.41
2023-03-27T20:09:14.033Z,2.39
2023-03-27T20:11:15.649Z,2.30
2023-03-27T20:13:18.891Z,2.29
2023-03-27T20:15:20.742Z,2.31
2023-03-27T20:17:28.049Z,2.11
2023-03-27T20:19:32.717Z,2.17
2023-03-27T20:21:42.218Z,2.28
2023-03-27T20:23:46.752Z,2.19
2023-03-27T20:25:56.589Z,2.21
2023-03-27T20:27:58.317Z,2.01
2023-03-27T20:30:01.859Z,2.09
2023-03-27T20:32:03.586Z,1.97
2023-03-27T20:34:06.539Z,1.99
2023-03-27T20:36:08.064Z,1.97
2023-03-27T20:38:10.664Z,1.85
2023-03-27T20:40:13.769Z,1.83
2023-03-27T20:42:17.705Z,2.03
2023-03-27T20:44:19.526Z,1.86
2023-03-27T20:46:28.493Z,1.86
2023-03-27T20:48:40.416Z,1.81
2023-03-27T20:50:52.331Z,1.68
2023-03-27T20:52:57.767Z,1.61
2023-03-27T20:54:59.488Z,1.60
2023-03-27T20:57:02.434Z,1.51
2023-03-27T20:59:04.243Z,1.54
2023-03-27T21:01:08.947Z,1.52
2023-03-27T21:03:11.906Z,1.43
2023-03-27T21:05:13.503Z,1.32
2023-03-27T21:07:16.013Z,1.41
2023-03-27T21:09:21.410Z,1.52
2023-03-27T21:11:23.075Z,1.63
2023-03-27T21:13:24.649Z,1.57
2023-03-27T21:15:26.998Z,1.49
2023-03-27T21:17:28.651Z,1.48
2023-03-27T21:19:30.364Z,1.50
2023-03-27T21:21:32.059Z,1.65
2023-03-27T21:23:34.614Z,1.61
2023-03-27T21:25:36.937Z,1.64
2023-03-27T21:27:41.086Z,1.49
2023-03-27T21:29:42.572Z,1.47
2023-03-27T21:31:44.146Z,1.45
2023-03-27T21:33:45.774Z,1.34
2023-03-27T21:35:48.664Z,1.46
2023-03-27T21:37:50.518Z,1.39
2023-03-27T21:39:52.208Z,1.30
2023-03-27T21:41:53.760Z,1.26
2023-03-27T21:43:55.437Z,1.32
2023-03-27T21:46:00.024Z,1.29
2023-03-27T21:48:01.969Z,1.38
2023-03-27T21:50:03.721Z,1.55
2023-03-27T21:52:05.585Z,1.52
2023-03-27T21:54:07.147Z,1.53
2023-03-27T21:56:09.193Z,1.48
2023-03-27T21:58:11.096Z,1.36
2023-03-27T22:00:14.310Z,1.33
2023-03-27T22:02:16.043Z,1.25
2023-03-27T22:04:18.563Z,1.19
2023-03-27T22:06:21.606Z,1.14
2023-03-27T22:08:24.249Z,1.10
2023-03-27T22:10:28.034Z,1.14
2023-03-27T22:12:29.571Z,1.09
2023-03-27T22:14:32.155Z,1.05
2023-03-27T22:16:33.785Z,0.97
2023-03-27T22:18:35.331Z,0.93
2023-03-27T22:20:39.579Z,0.94
2023-03-27T22:22:41.693Z,0.91
2023-03-27T22:24:43.453Z,1.03
2023-03-27T22:26:44.989Z,0.98
2023-03-27T22:28:46.911Z,0.80
2023-03-27T22:30:48.554Z,0.76
2023-03-27T22:32:50.420Z,0.84
2023-03-27T22:34:52.380Z,0.95
2023-03-27T22:36:54.032Z,0.96
2023-03-27T22:38:55.687Z,0.86
2023-03-27T22:40:57.882Z,1.01
2023-03-27T22:42:59.396Z,1.04
2023-03-27T22:45:01.035Z,1.01
2023-03-27T22:47:03.028Z,0.91
2023-03-27T22:49:04.562Z,0.71
2023-03-27T22:51:06.955Z,0.76
2023-03-27T22:53:08.519Z,0.72
2023-03-27T22:55:12.852Z,0.72
2023-03-27T22:57:14.535Z,0.69
2023-03-27T22:59:17.312Z,0.62
2023-03-27T23:01:18.896Z,0.68
2023-03-27T23:03:22.246Z,0.61
2023-03-27T23:05:23.941Z,0.74
2023-03-27T23:07:25.586Z,0.74
2023-03-27T23:09:27.565Z,0.75
2023-03-27T23:11:29.177Z,0.60
2023-03-27T23:13:32.940Z,0.58
2023-03-27T23:15:35.334Z,0.62
2023-03-27T23:17:37.183Z,0.55
2023-03-27T23:19:38.813Z,0.65
2023-03-27T23:21:40.625Z,0.74
2023-03-27T23:23:42.552Z,0.64
2023-03-27T23:25:44.084Z,0.54
2023-03-27T23:27:46.166Z,0.63
2023-03-27T23:29:47.940Z,0.54
2023-03-27T23:31:49.546Z,0.63
2023-03-27T23:33:51.612Z,0.65
2023-03-27T23:35:54.492Z,0.63
2023-03-27T23:37:56.773Z,0.53
2023-03-27T23:39:58.261Z,0.57
2023-03-27T23:41:59.889Z,0.46
2023-03-27T23:44:01.425Z,0.39
2023-03-27T23:46:05.271Z,0.46
2023-03-27T23:48:06.871Z,0.50
2023-03-27T23:50:08.735Z,0.47
2023-03-27T23:52:10.744Z,0.52
2023-03-27T23:54:12.262Z,0.45
2023-03-27T23:56:13.985Z,0.48
2023-03-27T23:58:15.513Z,0.49
